sensor_id;sensor_type;location;lat;lon;timestamp;P1;durP1;ratioP1;P2;durP2;ratioP2
35891;SDS011;21993;42.672;23.296;2023-09-18T00:02:07;11.13;;;8.87;;
35891;SDS011;21993;42.672;23.296;2023-09-18T00:04:32;14.93;;;9.27;;
35891;SDS011;21993;42.672;23.296;2023-09-18T00:06:58;13.43;;;9.47;;
35891;SDS011;21993;42.672;23.296;2023-09-18T00:09:24;14.63;;;9.37;;
35891;SDS011;21993;42.672;23.296;2023-09-18T00:11:49;16.60;;;11.00;;
35891;SDS011;21993;42.672;23.296;2023-09-18T00:14:15;12.73;;;10.50;;
35891;SDS011;21993;42.672;23.296;2023-09-18T00:16:40;16.20;;;10.30;;
35891;SDS011;21993;42.672;23.296;2023-09-18T00:19:05;14.07;;;10.77;;
35891;SDS011;21993;42.672;23.296;2023-09-18T00:21:34;13.23;;;9.70;;
35891;SDS011;21993;42.672;23.296;2023-09-18T00:23:59;15.30;;;10.13;;
35891;SDS011;21993;42.672;23.296;2023-09-18T00:26:25;17.07;;;10.30;;
35891;SDS011;21993;42.672;23.296;2023-09-18T00:28:50;14.63;;;10.33;;
35891;SDS011;21993;42.672;23.296;2023-09-18T00:31:16;13.53;;;10.17;;
35891;SDS011;21993;42.672;23.296;2023-09-18T00:33:41;14.33;;;10.40;;
35891;SDS011;21993;42.672;23.296;2023-09-18T00:36:07;16.83;;;10.60;;
35891;SDS011;21993;42.672;23.296;2023-09-18T00:38:32;15.10;;;10.57;;
35891;SDS011;21993;42.672;23.296;2023-09-18T00:40:57;16.80;;;10.10;;
35891;SDS011;21993;42.672;23.296;2023-09-18T00:43:23;13.00;;;9.33;;
35891;SDS011;21993;42.672;23.296;2023-09-18T00:45:48;11.63;;;9.70;;
35891;SDS011;21993;42.672;23.296;2023-09-18T00:48:14;12.77;;;9.20;;
35891;SDS011;21993;42.672;23.296;2023-09-18T00:50:41;12.60;;;9.50;;
35891;SDS011;21993;42.672;23.296;2023-09-18T00:53:08;16.73;;;9.70;;
35891;SDS011;21993;42.672;23.296;2023-09-18T00:55:36;12.83;;;9.93;;
35891;SDS011;21993;42.672;23.296;2023-09-18T00:58:02;13.70;;;10.30;;
35891;SDS011;21993;42.672;23.296;2023-09-18T01:00:28;14.07;;;9.97;;
35891;SDS011;21993;42.672;23.296;2023-09-18T01:02:53;15.37;;;10.53;;
35891;SDS011;21993;42.672;23.296;2023-09-18T01:05:19;14.03;;;10.17;;
35891;SDS011;21993;42.672;23.296;2023-09-18T01:07:45;14.03;;;9.60;;
35891;SDS011;21993;42.672;23.296;2023-09-18T01:10:11;13.83;;;11.07;;
35891;SDS011;21993;42.672;23.296;2023-09-18T01:15:22;13.90;;;10.40;;
35891;SDS011;21993;42.672;23.296;2023-09-18T01:17:52;13.33;;;10.37;;
35891;SDS011;21993;42.672;23.296;2023-09-18T01:20:17;14.97;;;10.97;;
35891;SDS011;21993;42.672;23.296;2023-09-18T01:22:43;15.73;;;10.50;;
35891;SDS011;21993;42.672;23.296;2023-09-18T01:25:08;15.90;;;10.73;;
35891;SDS011;21993;42.672;23.296;2023-09-18T01:27:34;16.37;;;11.00;;
35891;SDS011;21993;42.672;23.296;2023-09-18T01:29:59;15.27;;;9.97;;
35891;SDS011;21993;42.672;23.296;2023-09-18T01:32:26;17.37;;;11.17;;
35891;SDS011;21993;42.672;23.296;2023-09-18T01:34:55;17.57;;;11.67;;
35891;SDS011;21993;42.672;23.296;2023-09-18T01:37:25;19.10;;;10.93;;
35891;SDS011;21993;42.672;23.296;2023-09-18T01:39:52;15.77;;;11.17;;
35891;SDS011;21993;42.672;23.296;2023-09-18T01:42:19;22.33;;;11.20;;
35891;SDS011;21993;42.672;23.296;2023-09-18T01:44:46;15.47;;;11.03;;
35891;SDS011;21993;42.672;23.296;2023-09-18T01:47:14;13.53;;;10.70;;
35891;SDS011;21993;42.672;23.296;2023-09-18T01:49:42;14.43;;;10.27;;
35891;SDS011;21993;42.672;23.296;2023-09-18T01:52:08;15.60;;;10.73;;
35891;SDS011;21993;42.672;23.296;2023-09-18T01:54:34;14.47;;;10.87;;
35891;SDS011;21993;42.672;23.296;2023-09-18T01:57:01;14.97;;;10.47;;
35891;SDS011;21993;42.672;23.296;2023-09-18T01:59:27;18.20;;;11.03;;
35891;SDS011;21993;42.672;23.296;2023-09-18T02:01:53;16.63;;;11.53;;
35891;SDS011;21993;42.672;23.296;2023-09-18T02:04:20;16.40;;;10.67;;
35891;SDS011;21993;42.672;23.296;2023-09-18T02:06:46;14.43;;;11.33;;
35891;SDS011;21993;42.672;23.296;2023-09-18T02:09:13;15.60;;;11.77;;
35891;SDS011;21993;42.672;23.296;2023-09-18T02:11:39;15.73;;;11.20;;
35891;SDS011;21993;42.672;23.296;2023-09-18T02:14:06;13.20;;;11.17;;
35891;SDS011;21993;42.672;23.296;2023-09-18T02:16:35;19.13;;;12.40;;
35891;SDS011;21993;42.672;23.296;2023-09-18T02:19:02;19.40;;;11.73;;
35891;SDS011;21993;42.672;23.296;2023-09-18T02:21:29;16.07;;;11.80;;
35891;SDS011;21993;42.672;23.296;2023-09-18T02:23:55;18.57;;;12.13;;
35891;SDS011;21993;42.672;23.296;2023-09-18T02:26:21;17.00;;;12.10;;
35891;SDS011;21993;42.672;23.296;2023-09-18T02:28:47;18.20;;;11.93;;
35891;SDS011;21993;42.672;23.296;2023-09-18T02:31:13;18.13;;;12.23;;
35891;SDS011;21993;42.672;23.296;2023-09-18T02:33:39;14.47;;;11.10;;
35891;SDS011;21993;42.672;23.296;2023-09-18T02:36:05;14.60;;;11.70;;
35891;SDS011;21993;42.672;23.296;2023-09-18T02:38:31;19.20;;;12.37;;
35891;SDS011;21993;42.672;23.296;2023-09-18T02:40:57;18.67;;;12.20;;
35891;SDS011;21993;42.672;23.296;2023-09-18T02:43:23;14.53;;;11.63;;
35891;SDS011;21993;42.672;23.296;2023-09-18T02:45:49;17.50;;;11.93;;
35891;SDS011;21993;42.672;23.296;2023-09-18T02:48:15;20.33;;;12.53;;
35891;SDS011;21993;42.672;23.296;2023-09-18T02:50:41;17.40;;;13.37;;
35891;SDS011;21993;42.672;23.296;2023-09-18T02:53:06;19.00;;;12.33;;
35891;SDS011;21993;42.672;23.296;2023-09-18T02:55:41;17.07;;;12.23;;
35891;SDS011;21993;42.672;23.296;2023-09-18T02:58:06;18.83;;;12.63;;
35891;SDS011;21993;42.672;23.296;2023-09-18T03:00:34;21.57;;;11.53;;
35891;SDS011;21993;42.672;23.296;2023-09-18T03:02:59;18.80;;;13.07;;
35891;SDS011;21993;42.672;23.296;2023-09-18T03:05:25;16.67;;;12.53;;
35891;SDS011;21993;42.672;23.296;2023-09-18T03:07:51;19.77;;;13.07;;
35891;SDS011;21993;42.672;23.296;2023-09-18T03:10:16;19.60;;;13.83;;
35891;SDS011;21993;42.672;23.296;2023-09-18T03:12:43;16.93;;;12.73;;
35891;SDS011;21993;42.672;23.296;2023-09-18T03:15:12;20.20;;;12.83;;
35891;SDS011;21993;42.672;23.296;2023-09-18T03:17:37;18.87;;;13.20;;
35891;SDS011;21993;42.672;23.296;2023-09-18T03:20:06;18.23;;;14.33;;
35891;SDS011;21993;42.672;23.296;2023-09-18T03:22:32;16.70;;;14.03;;
35891;SDS011;21993;42.672;23.296;2023-09-18T03:24:57;22.63;;;13.90;;
35891;SDS011;21993;42.672;23.296;2023-09-18T03:27:23;20.47;;;13.33;;
35891;SDS011;21993;42.672;23.296;2023-09-18T03:29:53;19.50;;;14.03;;
35891;SDS011;21993;42.672;23.296;2023-09-18T03:32:19;19.40;;;13.50;;
35891;SDS011;21993;42.672;23.296;2023-09-18T03:34:44;19.73;;;13.93;;
35891;SDS011;21993;42.672;23.296;2023-09-18T03:37:10;18.03;;;13.60;;
35891;SDS011;21993;42.672;23.296;2023-09-18T03:39:35;20.23;;;14.23;;
35891;SDS011;21993;42.672;23.296;2023-09-18T03:42:01;19.57;;;14.10;;
35891;SDS011;21993;42.672;23.296;2023-09-18T03:44:26;17.27;;;13.33;;
35891;SDS011;21993;42.672;23.296;2023-09-18T03:46:51;19.03;;;14.23;;
35891;SDS011;21993;42.672;23.296;2023-09-18T03:49:17;20.83;;;13.63;;
35891;SDS011;21993;42.672;23.296;2023-09-18T03:51:42;21.10;;;14.37;;
35891;SDS011;21993;42.672;23.296;2023-09-18T03:54:09;18.63;;;12.83;;
35891;SDS011;21993;42.672;23.296;2023-09-18T03:56:35;17.63;;;13.37;;
35891;SDS011;21993;42.672;23.296;2023-09-18T03:59:00;18.87;;;13.77;;
35891;SDS011;21993;42.672;23.296;2023-09-18T04:01:26;17.60;;;13.87;;
35891;SDS011;21993;42.672;23.296;2023-09-18T04:03:52;22.27;;;15.13;;
35891;SDS011;21993;42.672;23.296;2023-09-18T04:06:20;20.83;;;14.10;;
35891;SDS011;21993;42.672;23.296;2023-09-18T04:08:46;18.93;;;12.93;;
35891;SDS011;21993;42.672;23.296;2023-09-18T04:11:11;20.60;;;14.53;;
35891;SDS011;21993;42.672;23.296;2023-09-18T04:13:37;23.47;;;14.40;;
35891;SDS011;21993;42.672;23.296;2023-09-18T04:16:03;16.83;;;13.93;;
35891;SDS011;21993;42.672;23.296;2023-09-18T04:18:29;24.10;;;15.03;;
35891;SDS011;21993;42.672;23.296;2023-09-18T04:20:55;21.23;;;14.63;;
35891;SDS011;21993;42.672;23.296;2023-09-18T04:23:21;25.53;;;16.30;;
35891;SDS011;21993;42.672;23.296;2023-09-18T04:25:47;22.37;;;15.37;;
35891;SDS011;21993;42.672;23.296;2023-09-18T04:28:16;24.90;;;15.90;;
35891;SDS011;21993;42.672;23.296;2023-09-18T04:30:44;21.30;;;15.10;;
35891;SDS011;21993;42.672;23.296;2023-09-18T04:33:09;21.97;;;16.00;;
35891;SDS011;21993;42.672;23.296;2023-09-18T04:35:36;23.10;;;15.33;;
35891;SDS011;21993;42.672;23.296;2023-09-18T04:38:04;23.10;;;16.20;;
35891;SDS011;21993;42.672;23.296;2023-09-18T04:40:31;19.93;;;15.27;;
35891;SDS011;21993;42.672;23.296;2023-09-18T04:43:00;28.90;;;17.80;;
35891;SDS011;21993;42.672;23.296;2023-09-18T04:45:26;23.47;;;15.37;;
35891;SDS011;21993;42.672;23.296;2023-09-18T04:47:52;22.57;;;16.03;;
35891;SDS011;21993;42.672;23.296;2023-09-18T04:50:18;21.60;;;16.20;;
35891;SDS011;21993;42.672;23.296;2023-09-18T04:52:44;22.77;;;16.10;;
35891;SDS011;21993;42.672;23.296;2023-09-18T04:55:09;25.63;;;16.83;;
35891;SDS011;21993;42.672;23.296;2023-09-18T04:57:36;24.03;;;17.40;;
35891;SDS011;21993;42.672;23.296;2023-09-18T05:00:02;24.60;;;17.23;;
35891;SDS011;21993;42.672;23.296;2023-09-18T05:02:32;24.50;;;17.17;;
35891;SDS011;21993;42.672;23.296;2023-09-18T05:04:59;25.47;;;17.17;;
35891;SDS011;21993;42.672;23.296;2023-09-18T05:07:25;23.90;;;17.30;;
35891;SDS011;21993;42.672;23.296;2023-09-18T05:09:50;25.93;;;18.03;;
35891;SDS011;21993;42.672;23.296;2023-09-18T05:12:16;23.13;;;16.07;;
35891;SDS011;21993;42.672;23.296;2023-09-18T05:14:42;26.77;;;17.13;;
35891;SDS011;21993;42.672;23.296;2023-09-18T05:17:14;21.87;;;15.80;;
35891;SDS011;21993;42.672;23.296;2023-09-18T05:19:41;23.07;;;16.87;;
35891;SDS011;21993;42.672;23.296;2023-09-18T05:22:08;24.43;;;16.93;;
35891;SDS011;21993;42.672;23.296;2023-09-18T05:24:35;25.03;;;17.63;;
35891;SDS011;21993;42.672;23.296;2023-09-18T05:27:01;21.80;;;16.70;;
35891;SDS011;21993;42.672;23.296;2023-09-18T05:29:27;26.60;;;16.70;;
35891;SDS011;21993;42.672;23.296;2023-09-18T05:31:53;24.37;;;17.57;;
35891;SDS011;21993;42.672;23.296;2023-09-18T05:34:18;25.33;;;16.77;;
35891;SDS011;21993;42.672;23.296;2023-09-18T05:36:44;22.47;;;15.27;;
35891;SDS011;21993;42.672;23.296;2023-09-18T05:39:09;24.00;;;16.73;;
35891;SDS011;21993;42.672;23.296;2023-09-18T05:41:37;23.27;;;16.20;;
35891;SDS011;21993;42.672;23.296;2023-09-18T05:44:03;24.93;;;16.93;;
35891;SDS011;21993;42.672;23.296;2023-09-18T05:46:30;24.97;;;15.97;;
35891;SDS011;21993;42.672;23.296;2023-09-18T05:48:55;21.93;;;15.57;;
35891;SDS011;21993;42.672;23.296;2023-09-18T05:51:22;24.70;;;17.57;;
35891;SDS011;21993;42.672;23.296;2023-09-18T05:53:48;24.63;;;16.27;;
35891;SDS011;21993;42.672;23.296;2023-09-18T05:56:14;23.27;;;14.50;;
35891;SDS011;21993;42.672;23.296;2023-09-18T05:58:42;25.03;;;15.73;;
35891;SDS011;21993;42.672;23.296;2023-09-18T06:01:07;22.90;;;14.70;;
35891;SDS011;21993;42.672;23.296;2023-09-18T06:03:33;22.27;;;15.83;;
35891;SDS011;21993;42.672;23.296;2023-09-18T06:06:01;20.73;;;15.17;;
35891;SDS011;21993;42.672;23.296;2023-09-18T06:08:27;23.80;;;15.70;;
35891;SDS011;21993;42.672;23.296;2023-09-18T06:10:53;23.47;;;15.37;;
35891;SDS011;21993;42.672;23.296;2023-09-18T06:13:20;22.87;;;16.47;;
35891;SDS011;21993;42.672;23.296;2023-09-18T06:15:46;26.07;;;17.40;;
35891;SDS011;21993;42.672;23.296;2023-09-18T06:18:11;25.40;;;18.50;;
35891;SDS011;21993;42.672;23.296;2023-09-18T06:20:36;23.40;;;14.63;;
35891;SDS011;21993;42.672;23.296;2023-09-18T06:23:02;23.67;;;15.47;;
35891;SDS011;21993;42.672;23.296;2023-09-18T06:25:29;23.80;;;15.40;;
35891;SDS011;21993;42.672;23.296;2023-09-18T06:27:56;23.07;;;16.03;;
35891;SDS011;21993;42.672;23.296;2023-09-18T06:30:21;23.57;;;15.93;;
35891;SDS011;21993;42.672;23.296;2023-09-18T06:32:47;24.13;;;16.00;;
35891;SDS011;21993;42.672;23.296;2023-09-18T06:35:13;25.93;;;15.50;;
35891;SDS011;21993;42.672;23.296;2023-09-18T06:37:38;23.27;;;15.87;;
35891;SDS011;21993;42.672;23.296;2023-09-18T06:40:03;24.57;;;15.63;;
35891;SDS011;21993;42.672;23.296;2023-09-18T06:42:30;25.30;;;16.50;;
35891;SDS011;21993;42.672;23.296;2023-09-18T06:44:56;21.27;;;15.00;;
35891;SDS011;21993;42.672;23.296;2023-09-18T06:47:22;24.40;;;15.50;;
35891;SDS011;21993;42.672;23.296;2023-09-18T06:49:49;22.43;;;15.43;;
35891;SDS011;21993;42.672;23.296;2023-09-18T06:52:14;27.13;;;16.13;;
35891;SDS011;21993;42.672;23.296;2023-09-18T06:54:40;22.23;;;14.67;;
35891;SDS011;21993;42.672;23.296;2023-09-18T06:57:06;21.37;;;14.33;;
35891;SDS011;21993;42.672;23.296;2023-09-18T06:59:31;24.50;;;15.70;;
35891;SDS011;21993;42.672;23.296;2023-09-18T07:01:58;22.40;;;14.10;;
35891;SDS011;21993;42.672;23.296;2023-09-18T07:04:25;18.10;;;13.23;;
35891;SDS011;21993;42.672;23.296;2023-09-18T07:06:50;19.53;;;14.43;;
35891;SDS011;21993;42.672;23.296;2023-09-18T07:09:18;19.23;;;13.37;;
35891;SDS011;21993;42.672;23.296;2023-09-18T07:11:43;20.63;;;13.00;;
35891;SDS011;21993;42.672;23.296;2023-09-18T07:14:09;16.50;;;12.33;;
35891;SDS011;21993;42.672;23.296;2023-09-18T07:16:34;17.67;;;12.03;;
35891;SDS011;21993;42.672;23.296;2023-09-18T07:19:00;17.90;;;12.63;;
35891;SDS011;21993;42.672;23.296;2023-09-18T07:21:26;15.63;;;12.03;;
35891;SDS011;21993;42.672;23.296;2023-09-18T07:23:53;19.87;;;12.27;;
35891;SDS011;21993;42.672;23.296;2023-09-18T07:26:19;18.87;;;12.63;;
35891;SDS011;21993;42.672;23.296;2023-09-18T07:28:45;17.87;;;11.93;;
35891;SDS011;21993;42.672;23.296;2023-09-18T07:31:11;18.60;;;12.53;;
35891;SDS011;21993;42.672;23.296;2023-09-18T07:33:37;21.73;;;12.97;;
35891;SDS011;21993;42.672;23.296;2023-09-18T07:36:03;21.97;;;13.27;;
35891;SDS011;21993;42.672;23.296;2023-09-18T07:38:29;19.83;;;12.60;;
35891;SDS011;21993;42.672;23.296;2023-09-18T07:40:54;21.87;;;13.17;;
35891;SDS011;21993;42.672;23.296;2023-09-18T07:43:21;15.30;;;11.83;;
35891;SDS011;21993;42.672;23.296;2023-09-18T07:45:48;16.23;;;11.07;;
35891;SDS011;21993;42.672;23.296;2023-09-18T07:48:14;16.13;;;12.03;;
35891;SDS011;21993;42.672;23.296;2023-09-18T07:50:43;19.83;;;11.63;;
35891;SDS011;21993;42.672;23.296;2023-09-18T07:53:09;18.17;;;11.90;;
35891;SDS011;21993;42.672;23.296;2023-09-18T07:55:34;21.13;;;12.17;;
35891;SDS011;21993;42.672;23.296;2023-09-18T07:58:00;17.93;;;12.33;;
35891;SDS011;21993;42.672;23.296;2023-09-18T08:00:25;16.40;;;12.27;;
35891;SDS011;21993;42.672;23.296;2023-09-18T08:02:50;15.87;;;11.97;;
35891;SDS011;21993;42.672;23.296;2023-09-18T08:05:21;19.23;;;12.03;;
35891;SDS011;21993;42.672;23.296;2023-09-18T08:07:46;14.33;;;10.73;;
35891;SDS011;21993;42.672;23.296;2023-09-18T08:10:13;21.37;;;12.37;;
35891;SDS011;21993;42.672;23.296;2023-09-18T08:12:38;16.27;;;11.97;;
35891;SDS011;21993;42.672;23.296;2023-09-18T08:15:03;16.83;;;11.53;;
35891;SDS011;21993;42.672;23.296;2023-09-18T08:17:31;18.27;;;12.23;;
35891;SDS011;21993;42.672;23.296;2023-09-18T08:19:56;17.77;;;11.60;;
35891;SDS011;21993;42.672;23.296;2023-09-18T08:22:23;17.40;;;12.83;;
35891;SDS011;21993;42.672;23.296;2023-09-18T08:24:49;17.60;;;11.00;;
35891;SDS011;21993;42.672;23.296;2023-09-18T08:27:17;15.30;;;11.20;;
35891;SDS011;21993;42.672;23.296;2023-09-18T08:29:44;19.70;;;12.10;;
35891;SDS011;21993;42.672;23.296;2023-09-18T08:32:10;17.67;;;11.80;;
35891;SDS011;21993;42.672;23.296;2023-09-18T08:34:35;15.00;;;11.43;;
35891;SDS011;21993;42.672;23.296;2023-09-18T08:37:02;17.57;;;12.03;;
35891;SDS011;21993;42.672;23.296;2023-09-18T08:39:28;18.23;;;11.83;;
35891;SDS011;21993;42.672;23.296;2023-09-18T08:41:56;15.97;;;11.63;;
35891;SDS011;21993;42.672;23.296;2023-09-18T08:44:25;15.80;;;11.83;;
35891;SDS011;21993;42.672;23.296;2023-09-18T08:46:53;17.37;;;11.77;;
35891;SDS011;21993;42.672;23.296;2023-09-18T08:49:20;19.37;;;11.53;;
35891;SDS011;21993;42.672;23.296;2023-09-18T08:51:48;16.10;;;11.63;;
35891;SDS011;21993;42.672;23.296;2023-09-18T08:54:15;15.37;;;11.20;;
35891;SDS011;21993;42.672;23.296;2023-09-18T08:56:40;15.97;;;11.97;;
35891;SDS011;21993;42.672;23.296;2023-09-18T08:59:06;15.07;;;10.60;;
35891;SDS011;21993;42.672;23.296;2023-09-18T09:01:31;18.10;;;12.20;;
35891;SDS011;21993;42.672;23.296;2023-09-18T09:03:57;16.93;;;9.90;;
35891;SDS011;21993;42.672;23.296;2023-09-18T09:06:22;16.10;;;10.77;;
35891;SDS011;21993;42.672;23.296;2023-09-18T09:08:49;14.97;;;11.40;;
35891;SDS011;21993;42.672;23.296;2023-09-18T09:11:15;13.37;;;10.97;;
35891;SDS011;21993;42.672;23.296;2023-09-18T09:13:40;13.57;;;10.17;;
35891;SDS011;21993;42.672;23.296;2023-09-18T09:16:05;12.30;;;10.03;;
35891;SDS011;21993;42.672;23.296;2023-09-18T09:18:36;15.43;;;10.17;;
35891;SDS011;21993;42.672;23.296;2023-09-18T09:21:13;12.77;;;10.17;;
35891;SDS011;21993;42.672;23.296;2023-09-18T09:23:45;15.93;;;10.93;;
35891;SDS011;21993;42.672;23.296;2023-09-18T09:26:16;12.87;;;9.73;;
35891;SDS011;21993;42.672;23.296;2023-09-18T09:28:43;13.07;;;9.63;;
35891;SDS011;21993;42.672;23.296;2023-09-18T09:31:10;15.73;;;8.83;;
35891;SDS011;21993;42.672;23.296;2023-09-18T09:33:40;13.13;;;8.97;;
35891;SDS011;21993;42.672;23.296;2023-09-18T09:36:18;13.00;;;8.43;;
35891;SDS011;21993;42.672;23.296;2023-09-18T09:38:44;10.47;;;7.70;;
35891;SDS011;21993;42.672;23.296;2023-09-18T09:41:12;12.93;;;8.87;;
35891;SDS011;21993;42.672;23.296;2023-09-18T09:43:38;14.33;;;8.57;;
35891;SDS011;21993;42.672;23.296;2023-09-18T09:46:07;10.10;;;8.40;;
35891;SDS011;21993;42.672;23.296;2023-09-18T09:48:57;9.83;;;7.53;;
35891;SDS011;21993;42.672;23.296;2023-09-18T09:51:24;10.47;;;8.30;;
35891;SDS011;21993;42.672;23.296;2023-09-18T09:53:49;9.23;;;7.47;;
35891;SDS011;21993;42.672;23.296;2023-09-18T09:56:16;11.10;;;8.10;;
35891;SDS011;21993;42.672;23.296;2023-09-18T09:58:59;9.30;;;8.10;;
35891;SDS011;21993;42.672;23.296;2023-09-18T10:01:27;10.93;;;7.57;;
35891;SDS011;21993;42.672;23.296;2023-09-18T10:03:54;13.37;;;7.90;;
35891;SDS011;21993;42.672;23.296;2023-09-18T10:06:20;10.93;;;8.80;;
35891;SDS011;21993;42.672;23.296;2023-09-18T10:08:47;12.00;;;8.20;;
35891;SDS011;21993;42.672;23.296;2023-09-18T10:11:13;13.80;;;8.37;;
35891;SDS011;21993;42.672;23.296;2023-09-18T10:13:48;11.50;;;8.50;;
35891;SDS011;21993;42.672;23.296;2023-09-18T10:16:22;12.53;;;8.70;;
35891;SDS011;21993;42.672;23.296;2023-09-18T10:21:45;11.37;;;7.93;;
35891;SDS011;21993;42.672;23.296;2023-09-18T10:24:25;9.33;;;7.50;;
35891;SDS011;21993;42.672;23.296;2023-09-18T10:29:23;10.97;;;7.83;;
35891;SDS011;21993;42.672;23.296;2023-09-18T10:31:50;11.17;;;7.90;;
35891;SDS011;21993;42.672;23.296;2023-09-18T10:34:17;9.70;;;7.57;;
35891;SDS011;21993;42.672;23.296;2023-09-18T10:36:43;13.60;;;7.93;;
35891;SDS011;21993;42.672;23.296;2023-09-18T10:39:12;9.80;;;7.77;;
35891;SDS011;21993;42.672;23.296;2023-09-18T10:41:38;11.83;;;8.50;;
35891;SDS011;21993;42.672;23.296;2023-09-18T10:44:06;11.93;;;7.83;;
35891;SDS011;21993;42.672;23.296;2023-09-18T10:46:32;13.40;;;7.00;;
35891;SDS011;21993;42.672;23.296;2023-09-18T10:48:59;8.73;;;6.80;;
35891;SDS011;21993;42.672;23.296;2023-09-18T10:51:25;9.17;;;6.73;;
35891;SDS011;21993;42.672;23.296;2023-09-18T10:53:52;8.37;;;7.23;;
35891;SDS011;21993;42.672;23.296;2023-09-18T10:56:20;10.70;;;6.60;;
35891;SDS011;21993;42.672;23.296;2023-09-18T10:58:46;7.87;;;5.97;;
35891;SDS011;21993;42.672;23.296;2023-09-18T11:01:21;8.43;;;6.43;;
35891;SDS011;21993;42.672;23.296;2023-09-18T11:03:49;6.90;;;6.20;;
35891;SDS011;21993;42.672;23.296;2023-09-18T11:06:15;7.43;;;6.73;;
35891;SDS011;21993;42.672;23.296;2023-09-18T11:08:46;8.60;;;6.57;;
35891;SDS011;21993;42.672;23.296;2023-09-18T11:11:14;7.37;;;6.60;;
35891;SDS011;21993;42.672;23.296;2023-09-18T11:13:45;7.73;;;6.23;;
35891;SDS011;21993;42.672;23.296;2023-09-18T11:18:51;7.37;;;6.23;;
35891;SDS011;21993;42.672;23.296;2023-09-18T11:21:21;7.47;;;6.43;;
35891;SDS011;21993;42.672;23.296;2023-09-18T11:23:51;8.37;;;5.70;;
35891;SDS011;21993;42.672;23.296;2023-09-18T11:26:30;8.70;;;6.10;;
35891;SDS011;21993;42.672;23.296;2023-09-18T11:29:04;6.43;;;5.80;;
35891;SDS011;21993;42.672;23.296;2023-09-18T11:34:13;5.60;;;5.10;;
35891;SDS011;21993;42.672;23.296;2023-09-18T11:36:45;6.20;;;5.50;;
35891;SDS011;21993;42.672;23.296;2023-09-18T11:39:11;5.87;;;5.30;;
35891;SDS011;21993;42.672;23.296;2023-09-18T11:41:38;6.43;;;5.60;;
35891;SDS011;21993;42.672;23.296;2023-09-18T11:46:39;8.30;;;5.00;;
35891;SDS011;21993;42.672;23.296;2023-09-18T11:49:08;5.97;;;5.13;;
35891;SDS011;21993;42.672;23.296;2023-09-18T11:51:36;7.03;;;5.70;;
35891;SDS011;21993;42.672;23.296;2023-09-18T11:54:02;6.07;;;5.37;;
35891;SDS011;21993;42.672;23.296;2023-09-18T11:56:29;8.40;;;5.50;;
35891;SDS011;21993;42.672;23.296;2023-09-18T11:58:55;6.90;;;5.37;;
35891;SDS011;21993;42.672;23.296;2023-09-18T12:01:21;7.17;;;5.70;;
35891;SDS011;21993;42.672;23.296;2023-09-18T12:03:52;6.57;;;5.53;;
35891;SDS011;21993;42.672;23.296;2023-09-18T12:06:19;7.77;;;5.20;;
35891;SDS011;21993;42.672;23.296;2023-09-18T12:08:46;7.07;;;5.40;;
35891;SDS011;21993;42.672;23.296;2023-09-18T12:11:12;5.73;;;5.13;;
35891;SDS011;21993;42.672;23.296;2023-09-18T12:13:42;8.10;;;5.00;;
35891;SDS011;21993;42.672;23.296;2023-09-18T12:16:08;5.90;;;4.83;;
35891;SDS011;21993;42.672;23.296;2023-09-18T12:18:34;5.67;;;5.00;;
35891;SDS011;21993;42.672;23.296;2023-09-18T12:21:02;7.87;;;5.23;;
35891;SDS011;21993;42.672;23.296;2023-09-18T12:23:36;5.87;;;4.63;;
35891;SDS011;21993;42.672;23.296;2023-09-18T12:26:03;6.40;;;5.37;;
35891;SDS011;21993;42.672;23.296;2023-09-18T12:28:32;6.40;;;5.40;;
35891;SDS011;21993;42.672;23.296;2023-09-18T12:30:58;5.50;;;4.90;;
35891;SDS011;21993;42.672;23.296;2023-09-18T12:33:24;5.80;;;5.10;;
35891;SDS011;21993;42.672;23.296;2023-09-18T12:35:50;6.60;;;5.47;;
35891;SDS011;21993;42.672;23.296;2023-09-18T12:38:17;5.97;;;5.37;;
35891;SDS011;21993;42.672;23.296;2023-09-18T12:40:50;9.67;;;5.73;;
35891;SDS011;21993;42.672;23.296;2023-09-18T12:43:16;5.47;;;4.97;;
35891;SDS011;21993;42.672;23.296;2023-09-18T12:45:43;11.17;;;6.03;;
35891;SDS011;21993;42.672;23.296;2023-09-18T12:48:09;9.53;;;5.80;;
35891;SDS011;21993;42.672;23.296;2023-09-18T12:50:37;5.93;;;5.33;;
35891;SDS011;21993;42.672;23.296;2023-09-18T12:53:06;7.40;;;5.47;;
35891;SDS011;21993;42.672;23.296;2023-09-18T12:55:35;8.47;;;6.30;;
35891;SDS011;21993;42.672;23.296;2023-09-18T12:58:02;8.23;;;5.13;;
35891;SDS011;21993;42.672;23.296;2023-09-18T13:00:32;6.33;;;5.47;;
35891;SDS011;21993;42.672;23.296;2023-09-18T13:02:58;8.30;;;5.47;;
35891;SDS011;21993;42.672;23.296;2023-09-18T13:05:23;6.80;;;5.63;;
35891;SDS011;21993;42.672;23.296;2023-09-18T13:08:00;6.93;;;5.60;;
35891;SDS011;21993;42.672;23.296;2023-09-18T13:10:27;6.13;;;5.33;;
35891;SDS011;21993;42.672;23.296;2023-09-18T13:12:53;9.73;;;7.03;;
35891;SDS011;21993;42.672;23.296;2023-09-18T13:15:26;5.70;;;5.10;;
35891;SDS011;21993;42.672;23.296;2023-09-18T13:17:58;7.90;;;5.80;;
35891;SDS011;21993;42.672;23.296;2023-09-18T13:20:34;6.13;;;5.53;;
35891;SDS011;21993;42.672;23.296;2023-09-18T13:23:00;6.00;;;5.40;;
35891;SDS011;21993;42.672;23.296;2023-09-18T13:25:29;6.90;;;5.53;;
35891;SDS011;21993;42.672;23.296;2023-09-18T13:27:59;10.97;;;5.07;;
35891;SDS011;21993;42.672;23.296;2023-09-18T13:30:25;7.57;;;5.53;;
35891;SDS011;21993;42.672;23.296;2023-09-18T13:32:51;7.13;;;5.10;;
35891;SDS011;21993;42.672;23.296;2023-09-18T13:35:26;9.50;;;5.13;;
35891;SDS011;21993;42.672;23.296;2023-09-18T13:37:51;6.60;;;5.00;;
35891;SDS011;21993;42.672;23.296;2023-09-18T13:40:16;6.00;;;5.17;;
35891;SDS011;21993;42.672;23.296;2023-09-18T13:42:42;5.63;;;5.13;;
35891;SDS011;21993;42.672;23.296;2023-09-18T13:45:07;7.00;;;5.30;;
35891;SDS011;21993;42.672;23.296;2023-09-18T13:47:34;10.23;;;5.50;;
35891;SDS011;21993;42.672;23.296;2023-09-18T13:50:00;5.37;;;4.97;;
35891;SDS011;21993;42.672;23.296;2023-09-18T13:52:27;7.83;;;5.00;;
35891;SDS011;21993;42.672;23.296;2023-09-18T13:54:54;6.17;;;5.57;;
35891;SDS011;21993;42.672;23.296;2023-09-18T13:57:19;5.67;;;5.00;;
35891;SDS011;21993;42.672;23.296;2023-09-18T13:59:45;5.07;;;4.33;;
35891;SDS011;21993;42.672;23.296;2023-09-18T14:02:13;6.40;;;5.23;;
35891;SDS011;21993;42.672;23.296;2023-09-18T14:04:38;7.00;;;5.03;;
35891;SDS011;21993;42.672;23.296;2023-09-18T14:07:05;7.07;;;5.10;;
35891;SDS011;21993;42.672;23.296;2023-09-18T14:09:31;8.60;;;5.23;;
35891;SDS011;21993;42.672;23.296;2023-09-18T14:11:56;8.27;;;5.87;;
35891;SDS011;21993;42.672;23.296;2023-09-18T14:14:22;6.27;;;4.80;;
35891;SDS011;21993;42.672;23.296;2023-09-18T14:16:48;5.57;;;4.40;;
35891;SDS011;21993;42.672;23.296;2023-09-18T14:19:15;5.97;;;4.80;;
35891;SDS011;21993;42.672;23.296;2023-09-18T14:21:41;6.83;;;5.03;;
35891;SDS011;21993;42.672;23.296;2023-09-18T14:24:06;6.60;;;4.83;;
35891;SDS011;21993;42.672;23.296;2023-09-18T14:26:33;7.07;;;5.17;;
35891;SDS011;21993;42.672;23.296;2023-09-18T14:29:05;5.90;;;4.87;;
35891;SDS011;21993;42.672;23.296;2023-09-18T14:31:31;5.23;;;4.73;;